Deva — A8OK3 — position and weather

sailwx.info

Track history (hours):
 
Tides and Currents Weather Stations Pressure Air Temp Water Temp Dewpoint Dewpoint Depression Visibility Wind Speed Wind Dir Waves Ship Positions

Deva

Last reported at 2017-Nov-16 08:13 UTC. Time now 2017-Nov-22 07:28 UTC.
Position N 22°00' E 114°23'.

Length 259 m; draft 11.3 m.

Type: Ship (hazmat cat A). MMSI: 636013644.

Date/timePositionNaut miles runAvg speedWind from/ knotsBaromVisibWave heightAir tempDewpointWater temp
2017-Nov-16 08:13N 22°00' E 114°23'415.9
2017-Nov-16 08:00N 22°04' E 114°23'713.8
2017-Nov-16 07:30N 22°07' E 114°16'12 9.1
2017-Nov-16 06:11N 22°15' E 114°07'313.6
2017-Nov-16 05:58N 22°18' E 114°06'3 5.4
2017-Nov-16 05:28N 22°20' E 114°08'0 0.1
2017-Nov-16 04:46N 22°20' E 114°08'0 0.0
2017-Nov-16 04:22N 22°20' E 114°08'0 0.0
2017-Nov-16 03:58N 22°20' E 114°08'0 0.0
2017-Nov-16 03:28N 22°20' E 114°08'0 0.0
2017-Nov-16 02:52N 22°20' E 114°08'0 0.0
2017-Nov-16 01:58N 22°20' E 114°08'0 0.0
2017-Nov-16 01:10N 22°20' E 114°08'0 0.0
2017-Nov-16 00:46N 22°20' E 114°08'0 0.0
2017-Nov-15 23:28N 22°20' E 114°08'0 0.0
2017-Nov-15 22:10N 22°20' E 114°08'0 0.0
2017-Nov-15 21:58N 22°20' E 114°08'0 0.0
2017-Nov-15 21:28N 22°20' E 114°08'0 0.0
2017-Nov-15 20:58N 22°20' E 114°08'0 0.0
2017-Nov-15 20:28N 22°20' E 114°08'0 0.0
2017-Nov-15 19:58N 22°20' E 114°08'0 0.0
2017-Nov-15 19:28N 22°20' E 114°08'0 0.0
2017-Nov-15 18:26N 22°20' E 114°08'2 3.3
2017-Nov-15 17:42N 22°18' E 114°06'313.6
2017-Nov-15 17:28N 22°15' E 114°07'1312.2
2017-Nov-15 16:24N 22°08' E 114°19'717.1
2017-Nov-15 16:00N 22°07' E 114°26'918.3
2017-Nov-15 15:30N 22°08' E 114°36'918.2
2017-Nov-15 15:00N 22°08' E 114°46'918.4
2017-Nov-15 14:30N 22°09' E 114°56'918.2
2017-Nov-15 14:00N 22°12' E 115°05'918.2
2017-Nov-15 13:30N 22°15' E 115°14'917.2
2017-Nov-15 12:59N 22°17' E 115°24'1518.5
2017-Nov-15 12:10N 22°21' E 115°40'176 8.1
2017-Nov-14 14:22N 23°52' E 118°23'1514.4
2017-Nov-14 13:22N 24°01' E 118°36'  
2017-Nov-10 23:03N 31°08' E 122°15'214.4
2017-Nov-10 22:55N 31°09' E 122°13'714.1
2017-Nov-10 22:26N 31°13' E 122°07'513.0
2017-Nov-10 22:00N 31°15' E 122°01'713.8
2017-Nov-10 21:30N 31°16' E 121°53'714.5
2017-Nov-10 21:00N 31°19' E 121°45'4 8.8
2017-Nov-10 20:30N 31°20' E 121°40'1 1.4
2017-Nov-10 19:58N 31°20' E 121°39'0 0.0
2017-Nov-10 19:28N 31°20' E 121°39'0 0.0
2017-Nov-10 18:55N 31°20' E 121°39'0 0.0
2017-Nov-10 18:28N 31°20' E 121°39'0 0.0
2017-Nov-10 17:58N 31°20' E 121°39'0 0.0
2017-Nov-10 17:25N 31°20' E 121°39'0 0.0
2017-Nov-10 16:58N 31°20' E 121°39'0 0.0
2017-Nov-10 16:25N 31°20' E 121°39'0 0.0
2017-Nov-10 15:58N 31°20' E 121°39'0 0.0
2017-Nov-10 15:25N 31°20' E 121°39'0 0.0
2017-Nov-10 14:58N 31°20' E 121°39'0 0.0
2017-Nov-10 14:28N 31°20' E 121°39'0 0.1
2017-Nov-10 13:58N 31°20' E 121°39'0 0.1
2017-Nov-10 13:28N 31°20' E 121°39'0 0.0
2017-Nov-10 12:55N 31°20' E 121°39'0 0.0
2017-Nov-10 12:28N 31°20' E 121°39'0 0.0
2017-Nov-10 11:58N 31°20' E 121°39'0 0.0
2017-Nov-10 11:28N 31°20' E 121°39'0 0.0
2017-Nov-10 10:58N 31°20' E 121°39'0 0.0
2017-Nov-10 10:25N 31°20' E 121°39'0 0.0
2017-Nov-10 09:58N 31°20' E 121°39'0 0.4
2017-Nov-10 09:30N 31°20' E 121°39'0 0.7
2017-Nov-10 09:00N 31°21' E 121°40'3 5.9
2017-Nov-10 08:30N 31°19' E 121°43'5 9.9
2017-Nov-10 08:00N 31°18' E 121°48'510.2
2017-Nov-10 07:30N 31°16' E 121°54'510.2
2017-Nov-10 07:00N 31°15' E 121°60'510.3
2017-Nov-10 06:30N 31°14' E 122°06'4 8.6
2017-Nov-10 05:59N 31°11' E 122°10'4 8.9
2017-Nov-10 05:30N 31°09' E 122°14'5 9.3
2017-Nov-10 05:00N 31°06' E 122°18'5 9.7
2017-Nov-10 04:30N 31°07' E 122°24'3 6.4
2017-Nov-10 04:00N 31°08' E 122°28'3 5.3
2017-Nov-10 03:30N 31°09' E 122°31'6 5.6
2017-Nov-10 02:22N 31°14' E 122°27'0 1.1
2017-Nov-10 02:00N 31°14' E 122°28'0 0.1
2017-Nov-10 01:24N 31°14' E 122°28'0 0.1
2017-Nov-10 00:15N 31°15' E 122°28'0 0.1
2017-Nov-09 23:27N 31°15' E 122°28'0 0.1
2017-Nov-09 22:57N 31°15' E 122°28'0 0.0
2017-Nov-09 22:21N 31°15' E 122°28'0 0.0
2017-Nov-09 21:48N 31°15' E 122°28'0 0.1
2017-Nov-09 20:29N 31°15' E 122°28'0 0.0
2017-Nov-09 19:53N 31°15' E 122°28'0 0.0
2017-Nov-09 19:23N 31°15' E 122°28'0 0.0
2017-Nov-09 13:29N 31°15' E 122°28'0 0.0
2017-Nov-09 12:50N 31°15' E 122°28'0 0.1
2017-Nov-09 12:29N 31°15' E 122°28'0 0.0
2017-Nov-09 11:59N 31°15' E 122°28'0 0.1
2017-Nov-09 11:29N 31°15' E 122°28'0 0.1
2017-Nov-09 10:53N 31°15' E 122°28'0 0.0
2017-Nov-09 10:26N 31°15' E 122°28'1 1.8
2017-Nov-09 09:58N 31°15' E 122°28'510.6
2017-Nov-09 09:29N 31°19' E 122°32'15311.4
2017-Nov-08 20:05N 33°52' E 122°28'111.0
2017-Nov-08 19:58N 33°54' E 122°27'711.2
2017-Nov-08 19:20N 34°00' E 122°25'411.4
2017-Nov-08 19:00N 34°04' E 122°23'  
Track history (hours):
 
Tides and Currents Weather Stations Pressure Air Temp Water Temp Dewpoint Dewpoint Depression Visibility Wind Speed Wind Dir Waves Ship Positions

Deva

Last reported at 2017-Nov-16 08:13 UTC. Time now 2017-Nov-22 07:28 UTC.
Position N 22°00' E 114°23'.

Length 259 m; draft 11.3 m.

Type: Ship (hazmat cat A). MMSI: 636013644.

Date/timePositionNaut miles runAvg speedWind from/ knotsBaromVisibWave heightAir tempDewpointWater temp
2017-Nov-16 08:13N 22°00' E 114°23'415.9
2017-Nov-16 08:00N 22°04' E 114°23'713.8
2017-Nov-16 07:30N 22°07' E 114°16'12 9.1
2017-Nov-16 06:11N 22°15' E 114°07'313.6
2017-Nov-16 05:58N 22°18' E 114°06'3 5.4
2017-Nov-16 05:28N 22°20' E 114°08'0 0.1
2017-Nov-16 04:46N 22°20' E 114°08'0 0.0
2017-Nov-16 04:22N 22°20' E 114°08'0 0.0
2017-Nov-16 03:58N 22°20' E 114°08'0 0.0
2017-Nov-16 03:28N 22°20' E 114°08'0 0.0
2017-Nov-16 02:52N 22°20' E 114°08'0 0.0
2017-Nov-16 01:58N 22°20' E 114°08'0 0.0
2017-Nov-16 01:10N 22°20' E 114°08'0 0.0
2017-Nov-16 00:46N 22°20' E 114°08'0 0.0
2017-Nov-15 23:28N 22°20' E 114°08'0 0.0
2017-Nov-15 22:10N 22°20' E 114°08'0 0.0
2017-Nov-15 21:58N 22°20' E 114°08'0 0.0
2017-Nov-15 21:28N 22°20' E 114°08'0 0.0
2017-Nov-15 20:58N 22°20' E 114°08'0 0.0
2017-Nov-15 20:28N 22°20' E 114°08'0 0.0
2017-Nov-15 19:58N 22°20' E 114°08'0 0.0
2017-Nov-15 19:28N 22°20' E 114°08'0 0.0
2017-Nov-15 18:26N 22°20' E 114°08'2 3.3
2017-Nov-15 17:42N 22°18' E 114°06'313.6
2017-Nov-15 17:28N 22°15' E 114°07'1312.2
2017-Nov-15 16:24N 22°08' E 114°19'717.1
2017-Nov-15 16:00N 22°07' E 114°26'918.3
2017-Nov-15 15:30N 22°08' E 114°36'918.2
2017-Nov-15 15:00N 22°08' E 114°46'918.4
2017-Nov-15 14:30N 22°09' E 114°56'918.2
2017-Nov-15 14:00N 22°12' E 115°05'918.2
2017-Nov-15 13:30N 22°15' E 115°14'917.2
2017-Nov-15 12:59N 22°17' E 115°24'1518.5
2017-Nov-15 12:10N 22°21' E 115°40'176 8.1
2017-Nov-14 14:22N 23°52' E 118°23'1514.4
2017-Nov-14 13:22N 24°01' E 118°36'  
2017-Nov-10 23:03N 31°08' E 122°15'214.4
2017-Nov-10 22:55N 31°09' E 122°13'714.1
2017-Nov-10 22:26N 31°13' E 122°07'513.0
2017-Nov-10 22:00N 31°15' E 122°01'713.8
2017-Nov-10 21:30N 31°16' E 121°53'714.5
2017-Nov-10 21:00N 31°19' E 121°45'4 8.8
2017-Nov-10 20:30N 31°20' E 121°40'1 1.4
2017-Nov-10 19:58N 31°20' E 121°39'0 0.0
2017-Nov-10 19:28N 31°20' E 121°39'0 0.0
2017-Nov-10 18:55N 31°20' E 121°39'0 0.0
2017-Nov-10 18:28N 31°20' E 121°39'0 0.0
2017-Nov-10 17:58N 31°20' E 121°39'0 0.0
2017-Nov-10 17:25N 31°20' E 121°39'0 0.0
2017-Nov-10 16:58N 31°20' E 121°39'0 0.0
2017-Nov-10 16:25N 31°20' E 121°39'0 0.0
2017-Nov-10 15:58N 31°20' E 121°39'0 0.0
2017-Nov-10 15:25N 31°20' E 121°39'0 0.0
2017-Nov-10 14:58N 31°20' E 121°39'0 0.0
2017-Nov-10 14:28N 31°20' E 121°39'0 0.1
2017-Nov-10 13:58N 31°20' E 121°39'0 0.1
2017-Nov-10 13:28N 31°20' E 121°39'0 0.0
2017-Nov-10 12:55N 31°20' E 121°39'0 0.0
2017-Nov-10 12:28N 31°20' E 121°39'0 0.0
2017-Nov-10 11:58N 31°20' E 121°39'0 0.0
2017-Nov-10 11:28N 31°20' E 121°39'0 0.0
2017-Nov-10 10:58N 31°20' E 121°39'0 0.0
2017-Nov-10 10:25N 31°20' E 121°39'0 0.0
2017-Nov-10 09:58N 31°20' E 121°39'0 0.4
2017-Nov-10 09:30N 31°20' E 121°39'0 0.7
2017-Nov-10 09:00N 31°21' E 121°40'3 5.9
2017-Nov-10 08:30N 31°19' E 121°43'5 9.9
2017-Nov-10 08:00N 31°18' E 121°48'510.2
2017-Nov-10 07:30N 31°16' E 121°54'510.2
2017-Nov-10 07:00N 31°15' E 121°60'510.3
2017-Nov-10 06:30N 31°14' E 122°06'4 8.6
2017-Nov-10 05:59N 31°11' E 122°10'4 8.9
2017-Nov-10 05:30N 31°09' E 122°14'5 9.3
2017-Nov-10 05:00N 31°06' E 122°18'5 9.7
2017-Nov-10 04:30N 31°07' E 122°24'3 6.4
2017-Nov-10 04:00N 31°08' E 122°28'3 5.3
2017-Nov-10 03:30N 31°09' E 122°31'6 5.6
2017-Nov-10 02:22N 31°14' E 122°27'0 1.1
2017-Nov-10 02:00N 31°14' E 122°28'0 0.1
2017-Nov-10 01:24N 31°14' E 122°28'0 0.1
2017-Nov-10 00:15N 31°15' E 122°28'0 0.1
2017-Nov-09 23:27N 31°15' E 122°28'0 0.1
2017-Nov-09 22:57N 31°15' E 122°28'0 0.0
2017-Nov-09 22:21N 31°15' E 122°28'0 0.0
2017-Nov-09 21:48N 31°15' E 122°28'0 0.1
2017-Nov-09 20:29N 31°15' E 122°28'0 0.0
2017-Nov-09 19:53N 31°15' E 122°28'0 0.0
2017-Nov-09 19:23N 31°15' E 122°28'0 0.0
2017-Nov-09 13:29N 31°15' E 122°28'0 0.0
2017-Nov-09 12:50N 31°15' E 122°28'0 0.1
2017-Nov-09 12:29N 31°15' E 122°28'0 0.0
2017-Nov-09 11:59N 31°15' E 122°28'0 0.1
2017-Nov-09 11:29N 31°15' E 122°28'0 0.1
2017-Nov-09 10:53N 31°15' E 122°28'0 0.0
2017-Nov-09 10:26N 31°15' E 122°28'1 1.8
2017-Nov-09 09:58N 31°15' E 122°28'510.6
2017-Nov-09 09:29N 31°19' E 122°32'15311.4
2017-Nov-08 20:05N 33°52' E 122°28'111.0
2017-Nov-08 19:58N 33°54' E 122°27'711.2
2017-Nov-08 19:20N 34°00' E 122°25'411.4
2017-Nov-08 19:00N 34°04' E 122°23'  

Dump ship's entire track history